Inicio METAR Ruta Wind Satelite

Informe Meteorológico

Fecha: 2020/09/22 21:39:34 Local
2020.09.23 02:39 UTC


Estado: VENCIDO
Operación:
Mitu, Colombia (SKMU) 01-08N 070-03W
2020.08.14 1400 UTC
Wind: Calm:0
Visibility: greater than 7 mile(s):0
Sky conditions: mostly clear
Temperature: 77 F (25 C)
Dew Point: 75 F (24 C)
Relative Humidity: 94%
Pressure (altimeter): 29.86 in. Hg (1011 hPa)
ob: SKMU 141400Z 00000KT 9999 FEW018 FEW120 25/24 A2986 NOSIG
cycle: 14